Main page
METAR-TAF:

METAR-TAF

Airports :

Noshahr Airport

Noshahr, Iran

latitude: 36-39-48N, longitude: 051-27-53E, elevation: 0 m

Current weather observation

The report was made 46 minutes ago, at 03:00 UTC
Wind 4 kt from the South/Southeast
Temperature 8°C
Humidity 76%
Pressure 1010 hPa
Visibility 10 km or more
no clouds below 1500 m and no cumulonimbus

METAR: OINN 090300Z 15004KT CAVOK 08/04 Q1010

Time: 07:16 (03:46 UTC)


TAF: missing

Weather observations and forecasts of more than 4000 airports (METAR and TAF reports).

The available stations are represented by yellow and red dots on the map.

Hover mouse over dot to see the name of the station.

Then click to see weather observations and forecasts.

To change the map : click on the green buttons with a black cross to zoom in, on the green button with a dash to zoom out, or on the green arrows for adjacent maps.


METAR-TAF: